Time;durP1;ratioP1;P1;durP2;ratioP2;P2;SDS_P1;SDS_P2;PMS_P1;PMS_P2;Temp;Humidity;BMP_temperature;BMP_pressure;BME280_temperature;BME280_humidity;BME280_pressure;Samples;Min_cycle;Max_cycle;Signal;HPM_P1;HPM_P2
2022/09/17 00:00:49;;;;;;;6.57;1.85;;;;;;;-140.66;100.00;55571.53;5055374;28;20017;-71
2022/09/17 00:03:35;;;;;;;6.53;1.80;;;;;;;-140.66;100.00;55571.53;5055242;28;20067;-70
2022/09/17 00:06:23;;;;;;;8.93;2.15;;;;;;;-140.66;100.00;55571.53;5041064;28;20032;-70
2022/09/17 00:09:09;;;;;;;5.70;1.90;;;;;;;-140.66;100.00;55571.53;5055042;28;20029;-70
2022/09/17 00:11:54;;;;;;;4.88;1.88;;;;;;;-140.66;100.00;55571.53;5055484;28;20056;-70
2022/09/17 00:14:40;;;;;;;4.22;2.20;;;;;;;-140.66;100.00;55571.53;5055105;28;20056;-70
2022/09/17 00:17:26;;;;;;;4.63;2.20;;;;;;;-140.66;100.00;55571.53;5054846;28;20035;-70
2022/09/17 00:20:12;;;;;;;4.28;2.20;;;;;;;-140.66;100.00;55571.53;5055380;28;20017;-71
2022/09/17 00:22:58;;;;;;;5.07;1.92;;;;;;;-140.66;100.00;55571.53;5041252;28;20025;-71
2022/09/17 00:25:45;;;;;;;6.35;1.77;;;;;;;-140.66;100.00;55571.53;5053882;28;20411;-70
2022/09/17 00:28:31;;;;;;;5.28;1.92;;;;;;;-140.66;100.00;55571.53;5055633;28;20028;-71
2022/09/17 00:31:18;;;;;;;7.38;2.25;;;;;;;-140.66;100.00;55571.53;5054919;28;20051;-70
2022/09/17 00:34:05;;;;;;;4.25;1.77;;;;;;;-140.66;100.00;55571.53;5054660;28;20028;-70
2022/09/17 00:36:51;;;;;;;5.20;1.95;;;;;;;-140.66;100.00;55571.53;5054766;28;20441;-72
2022/09/17 00:39:37;;;;;;;2.53;1.73;;;;;;;-140.66;100.00;55571.53;5054791;28;20049;-71
2022/09/17 00:42:23;;;;;;;4.65;1.60;;;;;;;-140.66;100.00;55571.53;5054612;28;20029;-72
2022/09/17 00:45:09;;;;;;;4.75;1.80;;;;;;;-140.66;100.00;55571.53;5054040;28;20029;-71
2022/09/17 00:48:00;;;;;;;6.43;1.50;;;;;;;-140.66;100.00;55571.53;5054208;28;20464;-71
2022/09/17 00:50:46;;;;;;;5.53;1.85;;;;;;;-140.66;100.00;55571.53;5054442;28;20433;-72
2022/09/17 00:53:32;;;;;;;7.65;1.85;;;;;;;-140.66;100.00;55571.53;5054117;28;20108;-71
2022/09/17 00:56:31;;;;;;;4.18;1.70;;;;;;;-140.66;100.00;55571.53;5054149;28;20045;-72
2022/09/17 00:59:21;;;;;;;5.93;1.80;;;;;;;-140.66;100.00;55571.53;5054182;28;20033;-71
2022/09/17 01:02:07;;;;;;;9.23;2.10;;;;;;;-140.66;100.00;55571.53;5038744;28;20040;-72
2022/09/17 01:04:53;;;;;;;6.75;1.85;;;;;;;-140.66;100.00;55571.53;5054015;28;20107;-71
2022/09/17 01:08:01;;;;;;;6.22;1.88;;;;;;;-140.66;100.00;55571.53;5054673;28;20115;-71
2022/09/17 01:11:08;;;;;;;4.78;1.95;;;;;;;-140.66;100.00;55571.53;5054598;28;20128;-73
2022/09/17 01:14:12;;;;;;;5.43;2.20;;;;;;;-140.66;100.00;55571.53;5053763;28;20057;-71
2022/09/17 01:17:07;;;;;;;4.45;1.90;;;;;;;-140.66;100.00;55571.53;5054777;28;20060;-71
2022/09/17 01:20:17;;;;;;;5.38;2.10;;;;;;;-140.66;100.00;55571.53;5053841;28;20020;-71
2022/09/17 01:23:24;;;;;;;3.83;1.80;;;;;;;-140.66;100.00;55571.53;5054216;28;20100;-71
2022/09/17 01:26:39;;;;;;;6.00;1.90;;;;;;;-140.66;100.00;55571.53;5053975;28;20372;-71
2022/09/17 01:29:49;;;;;;;5.53;2.10;;;;;;;-140.66;100.00;55571.53;5034087;28;20111;-71
2022/09/17 01:33:05;;;;;;;5.82;2.10;;;;;;;-140.66;100.00;55571.53;5053656;28;20412;-70
2022/09/17 01:36:16;;;;;;;11.27;2.88;;;;;;;-140.66;100.00;55571.53;5053831;28;20029;-71
2022/09/17 01:39:23;;;;;;;7.05;2.33;;;;;;;-140.66;100.00;55571.53;5053984;28;20123;-71
2022/09/17 01:42:30;;;;;;;7.05;2.35;;;;;;;-140.66;100.00;55571.53;5054023;28;20094;-70
2022/09/17 01:45:37;;;;;;;7.70;2.10;;;;;;;-140.66;100.00;55571.53;5038580;28;20033;-71
2022/09/17 01:48:29;;;;;;;7.40;2.30;;;;;;;-140.66;100.00;55571.53;5054277;28;20016;-71
2022/09/17 01:51:21;;;;;;;6.38;2.30;;;;;;;-140.66;100.00;55571.53;5054221;28;20395;-70
2022/09/17 01:54:24;;;;;;;9.50;2.35;;;;;;;-140.66;100.00;55571.53;5054659;28;20033;-71
2022/09/17 01:57:42;;;;;;;6.05;2.25;;;;;;;-140.66;100.00;55571.53;5053623;28;20484;-71
2022/09/17 02:00:28;;;;;;;6.70;2.20;;;;;;;-140.66;100.00;55571.53;5022457;28;20348;-71
2022/09/17 02:03:26;;;;;;;4.97;2.33;;;;;;;-140.66;100.00;55571.53;5053465;28;20036;-70
2022/09/17 02:06:18;;;;;;;5.90;2.70;;;;;;;-140.66;100.00;55571.53;5052764;28;20060;-72
2022/09/17 02:09:13;;;;;;;5.22;2.40;;;;;;;-140.66;100.00;55571.53;5054046;28;20029;-72
2022/09/17 02:12:02;;;;;;;6.55;2.50;;;;;;;-140.66;100.00;55571.53;5053322;28;20041;-70
2022/09/17 02:14:53;;;;;;;9.68;2.10;;;;;;;-140.66;100.00;55571.53;5038389;28;20037;-70
2022/09/17 02:17:48;;;;;;;8.95;2.53;;;;;;;-140.66;100.00;55571.53;5037839;28;20423;-71
2022/09/17 02:20:44;;;;;;;6.53;2.03;;;;;;;-140.66;100.00;55571.53;5058170;28;20041;-70
2022/09/17 02:23:35;;;;;;;6.97;2.40;;;;;;;-140.66;100.00;55571.53;5057993;28;20484;-71
2022/09/17 02:26:22;;;;;;;8.27;2.67;;;;;;;-140.66;100.00;55571.53;5058009;28;20029;-70
2022/09/17 02:29:15;;;;;;;8.68;2.70;;;;;;;-140.66;100.00;55571.53;5057898;28;20029;-71
2022/09/17 02:32:01;;;;;;;8.50;3.10;;;;;;;-140.66;100.00;55571.53;5056306;28;20040;-71
2022/09/17 02:34:47;;;;;;;8.48;2.95;;;;;;;-140.66;100.00;55571.53;5057121;28;20361;-71
2022/09/17 02:37:33;;;;;;;6.57;2.50;;;;;;;-140.66;100.00;55571.53;5056984;28;20040;-71
2022/09/17 02:40:23;;;;;;;7.45;2.83;;;;;;;-140.66;100.00;55571.53;5058203;28;20044;-71
2022/09/17 02:43:28;;;;;;;4.43;2.53;;;;;;;-140.66;100.00;55571.53;5043422;28;20029;-71
2022/09/17 02:46:58;;;;;;;12.35;3.03;;;;;;;-140.66;100.00;55571.53;5057306;28;20040;-71
2022/09/17 02:49:48;;;;;;;11.73;2.83;;;;;;;-140.66;100.00;55571.53;5057661;28;20319;-71
2022/09/17 02:53:04;;;;;;;7.13;2.72;;;;;;;-140.66;100.00;55571.53;5042876;28;20025;-71
2022/09/17 02:56:24;;;;;;;9.85;2.78;;;;;;;-140.66;100.00;55571.53;5055618;28;20052;-70
2022/09/17 02:59:45;;;;;;;5.82;2.58;;;;;;;-140.66;100.00;55571.53;5057093;28;20400;-70
2022/09/17 03:02:46;;;;;;;10.30;2.90;;;;;;;-140.66;100.00;55571.53;5036801;28;20036;-70
2022/09/17 03:05:34;;;;;;;9.68;2.90;;;;;;;-140.66;100.00;55571.53;5043154;28;20123;-71
2022/09/17 03:08:28;;;;;;;5.43;2.92;;;;;;;-140.66;100.00;55571.53;5055513;28;20025;-70
2022/09/17 03:11:14;;;;;;;9.68;2.88;;;;;;;-140.66;100.00;55571.53;5056357;28;20346;-72
2022/09/17 03:14:00;;;;;;;5.80;2.75;;;;;;;-140.66;100.00;55571.53;5056190;28;20112;-71
2022/09/17 03:16:46;;;;;;;6.18;2.70;;;;;;;-140.66;100.00;55571.53;5055795;28;20111;-71
2022/09/17 03:19:32;;;;;;;11.15;2.92;;;;;;;-140.66;100.00;55571.53;5056966;28;20039;-72
2022/09/17 03:22:18;;;;;;;15.40;2.95;;;;;;;-140.66;100.00;55571.53;5056033;28;20021;-70
2022/09/17 03:25:04;;;;;;;7.38;2.97;;;;;;;-140.66;100.00;55571.53;5055692;28;20021;-71
2022/09/17 03:27:51;;;;;;;10.90;3.50;;;;;;;-140.66;100.00;55571.53;5055308;28;20035;-71
2022/09/17 03:30:37;;;;;;;5.65;2.70;;;;;;;-140.66;100.00;55571.53;5056196;28;20040;-72
2022/09/17 03:33:23;;;;;;;8.77;3.15;;;;;;;-140.66;100.00;55571.53;5055555;28;20052;-71
2022/09/17 03:36:08;;;;;;;6.88;3.38;;;;;;;-140.66;100.00;55571.53;5055921;28;20029;-71
2022/09/17 03:38:56;;;;;;;9.02;3.10;;;;;;;-140.66;100.00;55571.53;5055634;28;20404;-70
2022/09/17 03:41:41;;;;;;;8.60;3.22;;;;;;;-140.66;100.00;55571.53;5041039;28;20090;-71
2022/09/17 03:44:27;;;;;;;8.10;3.60;;;;;;;-140.66;100.00;55571.53;5056017;28;20501;-72
2022/09/17 03:47:15;;;;;;;12.00;5.63;;;;;;;-140.66;100.00;55571.53;5055184;28;20029;-71
2022/09/17 03:50:01;;;;;;;8.02;3.40;;;;;;;-140.66;100.00;55571.53;5055077;28;20028;-70
2022/09/17 03:52:47;;;;;;;8.57;3.28;;;;;;;-140.66;100.00;55571.53;5040480;28;20021;-71
2022/09/17 03:55:32;;;;;;;7.95;3.70;;;;;;;-140.66;100.00;55571.53;5054980;28;20053;-70
2022/09/17 03:58:18;;;;;;;10.52;3.53;;;;;;;-140.66;100.00;55571.53;5055679;28;20028;-72
2022/09/17 04:01:04;;;;;;;7.75;3.53;;;;;;;-140.66;100.00;55571.53;5055580;28;20441;-72
2022/09/17 04:03:50;;;;;;;8.52;3.30;;;;;;;-140.66;100.00;55571.53;5042299;28;20056;-72
2022/09/17 04:06:36;;;;;;;8.25;3.45;;;;;;;-140.66;100.00;55571.53;5056052;28;20036;-72
2022/09/17 04:09:22;;;;;;;8.15;3.58;;;;;;;-140.66;100.00;55571.53;5055094;28;20025;-72
2022/09/17 04:12:08;;;;;;;8.90;3.88;;;;;;;-140.66;100.00;55571.53;5055011;28;20025;-71
2022/09/17 04:14:53;;;;;;;13.40;3.97;;;;;;;-140.66;100.00;55571.53;5055533;28;20381;-72
2022/09/17 04:17:39;;;;;;;12.15;4.43;;;;;;;-140.66;100.00;55571.53;5055218;28;20450;-72
2022/09/17 04:20:26;;;;;;;10.13;4.75;;;;;;;-140.66;100.00;55571.53;5055727;28;20037;-72
2022/09/17 04:23:12;;;;;;;13.30;4.82;;;;;;;-140.66;100.00;55571.53;5041687;28;20017;-71
2022/09/17 04:25:57;;;;;;;21.02;13.55;;;;;;;-140.66;100.00;55571.53;5054737;28;20017;-72
2022/09/17 04:28:43;;;;;;;13.98;4.25;;;;;;;-140.66;100.00;55571.53;5055864;28;20052;-73
2022/09/17 04:31:29;;;;;;;9.35;4.57;;;;;;;-140.66;100.00;55571.53;5055276;28;20064;-72
2022/09/17 04:34:14;;;;;;;16.17;5.15;;;;;;;-140.66;100.00;55571.53;5053483;28;20039;-72
2022/09/17 04:37:00;;;;;;;12.52;4.40;;;;;;;-140.66;100.00;55571.53;5054631;28;20029;-72
2022/09/17 04:39:46;;;;;;;9.65;4.00;;;;;;;-140.66;100.00;55571.53;5054889;28;20024;-72
2022/09/17 04:42:32;;;;;;;13.02;4.20;;;;;;;-140.66;100.00;55571.53;5053785;28;20095;-72
2022/09/17 04:45:17;;;;;;;11.40;4.57;;;;;;;-140.66;100.00;55571.53;5040660;28;20398;-72
2022/09/17 04:48:03;;;;;;;12.00;4.40;;;;;;;-140.66;100.00;55571.53;5054381;28;20040;-72
2022/09/17 04:50:49;;;;;;;11.38;3.97;;;;;;;-140.66;100.00;55571.53;5053892;28;20041;-73
2022/09/17 04:53:35;;;;;;;13.02;4.15;;;;;;;-140.66;100.00;55571.53;5054210;28;20126;-72
2022/09/17 04:56:21;;;;;;;12.15;4.22;;;;;;;-140.66;100.00;55571.53;5053832;28;20056;-72
2022/09/17 04:59:07;;;;;;;11.30;5.10;;;;;;;-140.66;100.00;55571.53;5054755;28;20032;-72
2022/09/17 05:01:53;;;;;;;11.00;3.90;;;;;;;-140.66;100.00;55571.53;5054383;28;20112;-73
2022/09/17 05:04:39;;;;;;;13.07;4.22;;;;;;;-140.66;100.00;55571.53;5054159;28;20112;-73
2022/09/17 05:07:25;;;;;;;13.43;4.10;;;;;;;-140.66;100.00;55571.53;5054266;28;20116;-72
2022/09/17 05:10:12;;;;;;;8.93;3.65;;;;;;;-140.66;100.00;55571.53;5054103;28;20055;-73
2022/09/17 05:12:58;;;;;;;10.50;3.80;;;;;;;-140.66;100.00;55571.53;5040582;28;20115;-73
2022/09/17 05:15:44;;;;;;;11.40;3.83;;;;;;;-140.66;100.00;55571.53;5053900;28;20059;-73
2022/09/17 05:18:30;;;;;;;12.32;3.75;;;;;;;-140.66;100.00;55571.53;5053823;28;20361;-72
2022/09/17 05:21:17;;;;;;;12.10;3.47;;;;;;;-140.66;100.00;55571.53;5054090;28;20021;-72
2022/09/17 05:24:03;;;;;;;10.75;3.45;;;;;;;-140.66;100.00;55571.53;5054002;28;20104;-72
2022/09/17 05:26:48;;;;;;;6.47;4.22;;;;;;;-140.66;100.00;55571.53;5053830;28;20107;-73
2022/09/17 05:29:35;;;;;;;9.75;4.78;;;;;;;-140.66;100.00;55571.53;5053993;28;20331;-73
2022/09/17 05:32:21;;;;;;;16.75;5.22;;;;;;;-140.66;100.00;55571.53;5053945;28;20335;-72
2022/09/17 05:35:08;;;;;;;11.73;4.97;;;;;;;-140.66;100.00;55571.53;5053659;28;20339;-73
2022/09/17 05:38:02;;;;;;;18.48;5.78;;;;;;;-140.66;100.00;55571.53;5040038;28;20452;-73
2022/09/17 05:40:47;;;;;;;11.52;5.40;;;;;;;-140.66;100.00;55571.53;5038552;28;20036;-72
2022/09/17 05:43:33;;;;;;;13.18;5.38;;;;;;;-140.66;100.00;55571.53;5053468;28;20090;-73
2022/09/17 05:46:19;;;;;;;15.15;5.18;;;;;;;-140.66;100.00;55571.53;5053770;28;20029;-72
2022/09/17 05:49:05;;;;;;;11.90;5.50;;;;;;;-140.66;100.00;55571.53;5053572;28;20109;-73
2022/09/17 05:51:50;;;;;;;14.93;5.30;;;;;;;-140.66;100.00;55571.53;5053213;28;20036;-73
2022/09/17 05:54:36;;;;;;;14.85;5.07;;;;;;;-140.66;100.00;55571.53;5055326;28;20020;-71
2022/09/17 05:57:22;;;;;;;13.85;5.68;;;;;;;-140.66;100.00;55571.53;5058231;28;20036;-72
2022/09/17 06:00:10;;;;;;;15.48;4.80;;;;;;;-140.66;100.00;55571.53;5057645;28;20338;-73
2022/09/17 06:02:56;;;;;;;11.32;4.72;;;;;;;-140.66;100.00;55571.53;5057215;28;20071;-72
2022/09/17 06:05:51;;;;;;;11.27;5.22;;;;;;;-140.66;100.00;55571.53;5057741;28;20057;-72
2022/09/17 06:08:36;;;;;;;12.43;5.47;;;;;;;-140.66;100.00;55571.53;5059623;28;20047;-73
2022/09/17 06:11:22;;;;;;;17.38;4.97;;;;;;;-140.66;100.00;55571.53;5057852;28;20378;-77
2022/09/17 06:14:08;;;;;;;9.73;4.82;;;;;;;-140.66;100.00;55571.53;5058279;28;20056;-72
2022/09/17 06:16:54;;;;;;;11.15;4.65;;;;;;;-140.66;100.00;55571.53;5057396;28;20025;-72
2022/09/17 06:19:40;;;;;;;17.88;5.07;;;;;;;-140.66;100.00;55571.53;5056392;28;20367;-73
2022/09/17 06:22:26;;;;;;;14.13;5.38;;;;;;;-140.66;100.00;55571.53;5042959;28;20021;-73
2022/09/17 06:25:12;;;;;;;13.70;4.97;;;;;;;-140.66;100.00;55571.53;5056981;28;20464;-74
2022/09/17 06:28:00;;;;;;;18.02;4.65;;;;;;;-140.66;100.00;55571.53;5056800;28;20036;-73
2022/09/17 06:30:47;;;;;;;10.77;4.43;;;;;;;-140.66;100.00;55571.53;5056841;28;20094;-73
2022/09/17 06:33:33;;;;;;;13.10;5.43;;;;;;;-140.66;100.00;55571.53;5057373;28;20043;-73
2022/09/17 06:36:19;;;;;;;12.80;4.70;;;;;;;-140.66;100.00;55571.53;5041821;28;20461;-72
2022/09/17 06:39:05;;;;;;;12.70;4.30;;;;;;;-140.66;100.00;55571.53;5057074;28;20445;-73
2022/09/17 06:41:50;;;;;;;15.25;4.57;;;;;;;-140.66;100.00;55571.53;5057407;28;20553;-73
2022/09/17 06:44:36;;;;;;;14.32;3.60;;;;;;;-140.66;100.00;55571.53;5057359;28;20033;-73
2022/09/17 06:47:23;;;;;;;11.02;3.85;;;;;;;-140.66;100.00;55571.53;5042489;28;20029;-73
2022/09/17 06:50:09;;;;;;;10.02;3.75;;;;;;;-140.66;100.00;55571.53;5056443;28;20427;-73
2022/09/17 06:52:55;;;;;;;16.38;3.90;;;;;;;-140.66;100.00;55571.53;5056424;28;20035;-72
2022/09/17 06:55:41;;;;;;;15.98;3.75;;;;;;;-140.66;100.00;55571.53;5056072;28;20106;-72
2022/09/17 06:58:28;;;;;;;15.02;3.40;;;;;;;-140.66;100.00;55571.53;5056561;28;20032;-73
2022/09/17 07:01:14;;;;;;;12.90;3.63;;;;;;;-140.66;100.00;55571.53;5056306;28;20104;-72
2022/09/17 07:04:00;;;;;;;10.20;3.65;;;;;;;-140.66;100.00;55571.53;5056066;28;20040;-72
2022/09/17 07:06:46;;;;;;;10.75;3.90;;;;;;;-140.66;100.00;55571.53;5057003;28;20071;-73
2022/09/17 07:09:32;;;;;;;11.80;3.83;;;;;;;-140.66;100.00;55571.53;5056594;28;20020;-73
2022/09/17 07:12:18;;;;;;;14.60;3.90;;;;;;;-140.66;100.00;55571.53;5055974;28;20020;-73
2022/09/17 07:15:05;;;;;;;13.40;3.95;;;;;;;-140.66;100.00;55571.53;5056298;28;20032;-73
2022/09/17 07:17:50;;;;;;;14.38;3.92;;;;;;;-140.66;100.00;55571.53;5056739;28;20031;-72
2022/09/17 07:20:38;;;;;;;10.07;4.03;;;;;;;-140.66;100.00;55571.53;5055507;28;20028;-73
2022/09/17 07:23:26;;;;;;;10.48;3.67;;;;;;;-140.66;100.00;55571.53;5055780;28;20029;-73
2022/09/17 07:26:13;;;;;;;9.63;3.83;;;;;;;-140.66;100.00;55571.53;5056469;28;20033;-72
2022/09/17 07:28:59;;;;;;;12.52;3.60;;;;;;;-140.66;100.00;55571.53;5056402;28;20036;-73
2022/09/17 07:31:45;;;;;;;14.38;3.50;;;;;;;-140.66;100.00;55571.53;5042630;28;20033;-73
2022/09/17 07:34:31;;;;;;;13.95;4.00;;;;;;;-140.66;100.00;55571.53;5056264;28;20448;-72
2022/09/17 07:37:17;;;;;;;12.98;3.72;;;;;;;-140.66;100.00;55571.53;5042880;28;20044;-73
2022/09/17 07:40:05;;;;;;;10.23;4.10;;;;;;;-140.66;100.00;55571.53;5028608;28;20094;-72
2022/09/17 07:42:53;;;;;;;12.60;3.83;;;;;;;-140.66;100.00;55571.53;5056096;28;20021;-73
2022/09/17 07:45:39;;;;;;;14.10;4.45;;;;;;;-140.66;100.00;55571.53;5055727;28;20032;-73
2022/09/17 07:48:25;;;;;;;14.27;3.78;;;;;;;-140.66;100.00;55571.53;5054769;28;20021;-72
2022/09/17 07:51:21;;;;;;;12.38;3.83;;;;;;;-140.66;100.00;55571.53;5041976;28;20076;-74
2022/09/17 07:54:07;;;;;;;13.10;4.00;;;;;;;-140.66;100.00;55571.53;5041721;28;20056;-75
2022/09/17 07:56:53;;;;;;;12.25;4.90;;;;;;;-140.66;100.00;55571.53;5055774;28;20080;-73
2022/09/17 07:59:39;;;;;;;12.23;3.78;;;;;;;-140.66;100.00;55571.53;5055033;28;20025;-73
2022/09/17 08:02:24;;;;;;;11.35;3.78;;;;;;;-140.66;100.00;55571.53;5042184;28;20027;-72
2022/09/17 08:05:10;;;;;;;14.80;4.28;;;;;;;-140.66;100.00;55571.53;5055273;28;20432;-72
2022/09/17 08:07:56;;;;;;;13.65;4.22;;;;;;;-140.66;100.00;55571.53;5055480;28;20025;-72
2022/09/17 08:10:42;;;;;;;14.27;4.72;;;;;;;-140.66;100.00;55571.53;5055235;28;20037;-74
2022/09/17 08:13:28;;;;;;;12.95;4.45;;;;;;;-140.66;100.00;55571.53;5054957;28;20021;-72
2022/09/17 08:16:15;;;;;;;12.40;5.30;;;;;;;-140.66;100.00;55571.53;5039655;28;20025;-72
2022/09/17 08:19:00;;;;;;;17.15;5.50;;;;;;;-140.66;100.00;55571.53;5055943;28;20039;-73
2022/09/17 08:21:46;;;;;;;15.52;5.35;;;;;;;-140.66;100.00;55571.53;5054217;28;20025;-72
2022/09/17 08:24:32;;;;;;;11.73;4.85;;;;;;;-140.66;100.00;55571.53;5056054;28;20358;-72
2022/09/17 08:27:18;;;;;;;14.13;4.50;;;;;;;-140.66;100.00;55571.53;5054794;28;20037;-73
2022/09/17 08:30:06;;;;;;;15.48;4.78;;;;;;;-140.66;100.00;55571.53;5055148;28;20360;-73
2022/09/17 08:32:55;;;;;;;12.45;4.63;;;;;;;-140.66;100.00;55571.53;5054952;28;20029;-72
2022/09/17 08:35:40;;;;;;;15.20;5.05;;;;;;;-140.66;100.00;55571.53;5056268;28;20056;-72
2022/09/17 08:38:29;;;;;;;12.30;5.38;;;;;;;-140.66;100.00;55571.53;5055141;28;20112;-72
2022/09/17 08:42:02;;;;;;;14.85;5.13;;;;;;;-140.66;100.00;55571.53;5054559;28;20442;-72
2022/09/17 08:44:49;;;;;;;12.18;4.55;;;;;;;-140.66;100.00;55571.53;5005734;28;20041;-72
2022/09/17 08:47:41;;;;;;;13.85;4.00;;;;;;;-140.66;100.00;55571.53;5055298;28;20033;-72
2022/09/17 08:50:32;;;;;;;16.05;4.30;;;;;;;-140.66;100.00;55571.53;5054611;28;20032;-73
2022/09/17 08:53:35;;;;;;;10.30;4.75;;;;;;;-140.66;100.00;55571.53;5054416;28;20043;-71
2022/09/17 08:56:21;;;;;;;12.40;4.40;;;;;;;-140.66;100.00;55571.53;5054556;28;20056;-72
2022/09/17 08:59:09;;;;;;;11.38;4.05;;;;;;;-140.66;100.00;55571.53;5053881;28;20025;-72
2022/09/17 09:02:11;;;;;;;12.00;4.07;;;;;;;-140.66;100.00;55571.53;5054198;28;20033;-72
2022/09/17 09:05:08;;;;;;;10.30;4.00;;;;;;;-140.66;100.00;55571.53;5054659;28;20028;-72
2022/09/17 09:08:09;;;;;;;13.23;5.10;;;;;;;-140.66;100.00;55571.53;5039244;28;20449;-73
2022/09/17 09:10:58;;;;;;;9.88;4.20;;;;;;;-140.66;100.00;55571.53;5054238;28;20493;-71
2022/09/17 09:13:53;;;;;;;10.43;3.55;;;;;;;-140.66;100.00;55571.53;5054393;28;20450;-73
2022/09/17 09:16:44;;;;;;;10.63;3.67;;;;;;;-140.66;100.00;55571.53;5054716;28;20047;-73
2022/09/17 09:19:37;;;;;;;15.77;4.32;;;;;;;-140.66;100.00;55571.53;5054176;28;20048;-74
2022/09/17 09:22:32;;;;;;;12.13;4.18;;;;;;;-140.66;100.00;55571.53;5054251;28;20021;-73
2022/09/17 09:25:35;;;;;;;12.50;4.00;;;;;;;-140.66;100.00;55571.53;5054985;28;20021;-73
2022/09/17 09:28:49;;;;;;;10.18;3.80;;;;;;;-140.66;100.00;55571.53;5051798;28;20020;-72
2022/09/17 09:31:41;;;;;;;10.82;4.00;;;;;;;-140.66;100.00;55571.53;5065097;28;20029;-71
2022/09/17 09:34:28;;;;;;;16.95;4.53;;;;;;;-140.66;100.00;55571.53;5066625;28;20032;-72
2022/09/17 09:37:26;;;;;;;12.43;4.90;;;;;;;-140.66;100.00;55571.53;5066236;28;20039;-71
2022/09/17 09:40:29;;;;;;;13.40;5.43;;;;;;;-140.66;100.00;55571.53;5066295;28;20025;-72
2022/09/17 09:43:33;;;;;;;18.10;6.03;;;;;;;-140.66;100.00;55571.53;5051132;28;20036;-71
2022/09/17 09:46:34;;;;;;;12.45;6.60;;;;;;;-140.66;100.00;55571.53;5065650;28;20052;-72
2022/09/17 09:49:35;;;;;;;16.73;7.85;;;;;;;-140.66;100.00;55571.53;5052464;28;20032;-71
2022/09/17 09:52:36;;;;;;;18.95;7.22;;;;;;;-140.66;100.00;55571.53;5055979;28;20084;-72
2022/09/17 09:55:56;;;;;;;14.07;7.20;;;;;;;-140.66;100.00;55571.53;5054531;28;20148;-73
2022/09/17 09:58:41;;;;;;;15.07;6.32;;;;;;;-140.66;100.00;55571.53;5054577;28;20094;-72
2022/09/17 10:01:30;;;;;;;15.25;5.72;;;;;;;-140.66;100.00;55571.53;5041349;28;20049;-73
2022/09/17 10:04:25;;;;;;;14.20;5.43;;;;;;;-140.66;100.00;55571.53;5042326;28;20029;-71
2022/09/17 10:07:10;;;;;;;8.93;4.30;;;;;;;-140.66;100.00;55571.53;5054883;28;20036;-72
2022/09/17 10:10:09;;;;;;;15.15;4.88;;;;;;;-140.66;100.00;55571.53;5042286;28;20040;-72
2022/09/17 10:13:06;;;;;;;11.13;4.45;;;;;;;-140.66;100.00;55571.53;5055062;28;20021;-71
2022/09/17 10:15:56;;;;;;;6.50;3.38;;;;;;;-140.66;100.00;55571.53;5040663;28;20084;-72
2022/09/17 10:18:43;;;;;;;9.75;3.80;;;;;;;-140.66;100.00;55571.53;5056689;28;20512;-71
2022/09/17 10:21:33;;;;;;;12.25;3.10;;;;;;;-140.66;100.00;55571.53;5054511;28;20039;-74
2022/09/17 10:24:30;;;;;;;7.55;2.17;;;;;;;-140.66;100.00;55571.53;5053927;28;20040;-73
2022/09/17 10:27:18;;;;;;;7.90;2.47;;;;;;;-140.66;100.00;55571.53;5040345;28;20071;-72
2022/09/17 10:30:07;;;;;;;5.10;1.77;;;;;;;-140.66;100.00;55571.53;5040529;28;20101;-72
2022/09/17 10:33:30;;;;;;;6.43;1.90;;;;;;;-140.66;100.00;55571.53;5055025;28;20342;-72
2022/09/17 10:36:33;;;;;;;7.75;2.05;;;;;;;-140.66;100.00;55571.53;5041174;28;20044;-73
2022/09/17 10:39:43;;;;;;;6.38;2.35;;;;;;;-140.66;100.00;55571.53;5041557;28;20056;-73
2022/09/17 10:42:28;;;;;;;6.82;2.10;;;;;;;-140.66;100.00;55571.53;5057636;28;20048;-73
2022/09/17 10:45:26;;;;;;;10.88;3.60;;;;;;;-140.66;100.00;55571.53;5058363;28;20029;-73
2022/09/17 10:48:19;;;;;;;9.48;2.30;;;;;;;-140.66;100.00;55571.53;5043949;28;20025;-72
2022/09/17 10:51:07;;;;;;;7.00;2.20;;;;;;;-140.66;100.00;55571.53;5058045;28;20060;-73
2022/09/17 10:54:11;;;;;;;8.38;2.20;;;;;;;-140.66;100.00;55571.53;5058748;28;20112;-74
2022/09/17 10:57:00;;;;;;;5.13;2.72;;;;;;;-140.66;100.00;55571.53;5058369;28;20418;-72
2022/09/17 11:00:02;;;;;;;8.63;3.10;;;;;;;-140.66;100.00;55571.53;5057937;28;20458;-73
2022/09/17 11:03:06;;;;;;;8.75;3.78;;;;;;;-140.66;100.00;55571.53;5057295;28;20036;-72
2022/09/17 11:06:20;;;;;;;9.85;5.65;;;;;;;-140.66;100.00;55571.53;5057589;28;20048;-73
2022/09/17 11:09:36;;;;;;;13.70;4.55;;;;;;;-140.66;100.00;55571.53;5056654;28;20033;-72
2022/09/17 11:12:27;;;;;;;8.10;4.45;;;;;;;-140.66;100.00;55571.53;5056508;28;20453;-74
2022/09/17 11:15:52;;;;;;;16.30;5.22;;;;;;;-140.66;100.00;55571.53;5056480;28;20044;-73
2022/09/17 11:18:50;;;;;;;13.13;5.22;;;;;;;-140.66;100.00;55571.53;5057802;28;20123;-71
2022/09/17 11:21:44;;;;;;;8.55;5.28;;;;;;;-140.66;100.00;55571.53;5056614;28;20039;-73
2022/09/17 11:24:55;;;;;;;14.63;5.55;;;;;;;-140.66;100.00;55571.53;5056264;28;20083;-73
2022/09/17 11:27:46;;;;;;;7.03;4.95;;;;;;;-140.66;100.00;55571.53;5042036;28;20079;-73
2022/09/17 11:30:54;;;;;;;9.30;4.20;;;;;;;-140.66;100.00;55571.53;5056099;28;20110;-72
2022/09/17 11:33:46;;;;;;;8.80;3.90;;;;;;;-140.66;100.00;55571.53;5056899;28;20032;-74
2022/09/17 11:36:50;;;;;;;9.82;4.13;;;;;;;-140.66;100.00;55571.53;5056428;28;20021;-72
2022/09/17 11:39:46;;;;;;;5.43;3.33;;;;;;;-140.66;100.00;55571.53;5056164;28;20029;-71
2022/09/17 11:42:47;;;;;;;6.88;3.25;;;;;;;-140.66;100.00;55571.53;5057158;28;20116;-76
2022/09/17 11:45:40;;;;;;;7.07;2.90;;;;;;;-140.66;100.00;55571.53;5056261;28;20037;-73
2022/09/17 11:48:31;;;;;;;6.55;2.80;;;;;;;-140.66;100.00;55571.53;5056114;28;20029;-72
2022/09/17 11:51:48;;;;;;;8.95;3.47;;;;;;;-140.66;100.00;55571.53;5055856;28;20113;-73
2022/09/17 11:54:44;;;;;;;6.05;3.20;;;;;;;-140.66;100.00;55571.53;5055743;28;20036;-71
2022/09/17 11:57:34;;;;;;;8.90;3.15;;;;;;;-140.66;100.00;55571.53;5041115;28;20355;-72
2022/09/17 12:00:22;;;;;;;16.35;3.30;;;;;;;-140.66;100.00;55571.53;5055040;28;20025;-73
2022/09/17 12:03:16;;;;;;;9.48;3.38;;;;;;;-140.66;100.00;55571.53;5056811;28;20460;-73
2022/09/17 12:06:08;;;;;;;12.98;3.45;;;;;;;-140.66;100.00;55571.53;5056054;28;20032;-72
2022/09/17 12:09:01;;;;;;;10.52;3.83;;;;;;;-140.66;100.00;55571.53;5055603;28;20029;-73
2022/09/17 12:12:08;;;;;;;15.18;3.83;;;;;;;-140.66;100.00;55571.53;5055031;28;20060;-72
2022/09/17 12:15:01;;;;;;;13.10;4.38;;;;;;;-140.66;100.00;55571.53;5055767;28;20029;-71
2022/09/17 12:17:53;;;;;;;12.43;4.18;;;;;;;-140.66;100.00;55571.53;5041774;28;20021;-73
2022/09/17 12:20:44;;;;;;;9.07;3.90;;;;;;;-140.66;100.00;55571.53;5055625;28;20033;-72
2022/09/17 12:23:36;;;;;;;12.93;4.10;;;;;;;-140.66;100.00;55571.53;5055845;28;20021;-74
2022/09/17 12:26:21;;;;;;;8.50;3.80;;;;;;;-140.66;100.00;55571.53;5055354;28;20329;-72
2022/09/17 12:29:35;;;;;;;9.20;4.28;;;;;;;-140.66;100.00;55571.53;5054939;28;20056;-71
2022/09/17 12:32:42;;;;;;;10.55;4.13;;;;;;;-140.66;100.00;55571.53;5041070;28;20024;-71
2022/09/17 12:35:43;;;;;;;9.68;4.50;;;;;;;-140.66;100.00;55571.53;5043131;28;20059;-72
2022/09/17 12:38:35;;;;;;;8.63;4.95;;;;;;;-140.66;100.00;55571.53;5041566;28;20068;-73
2022/09/17 12:41:35;;;;;;;9.93;5.00;;;;;;;-140.66;100.00;55571.53;5041342;28;20020;-72
2022/09/17 12:44:51;;;;;;;11.98;4.50;;;;;;;-140.66;100.00;55571.53;5041644;28;20025;-77
2022/09/17 12:48:07;;;;;;;11.05;4.63;;;;;;;-140.66;100.00;55571.53;5042035;28;20049;-72
2022/09/17 12:51:18;;;;;;;12.20;4.70;;;;;;;-140.66;100.00;55571.53;5055799;28;20040;-71
2022/09/17 12:54:19;;;;;;;15.00;4.65;;;;;;;-140.66;100.00;55571.53;5054340;28;20044;-72
2022/09/17 12:57:04;;;;;;;11.35;4.70;;;;;;;-140.66;100.00;55571.53;5054756;28;20378;-72